URWW

Volgograd International Airport

Volgograd, Russian Federation
TAF URWW 181057Z 1812/1821 06006G12MPS 9999 SCT040 TEMPO 1812/1815 09005G10MPS TEMPO 1815/1821 03003G08MPS
Issued Valid From Valid To
Jun-18 @ 10:57 UTC
(2 hours ago)
Jun-18 @ 12:00 UTC
(an hour ago)
Jun-18 @ 21:00 UTC
(in 8 hours)
Jun-18 @ 12:00 to Jun-18 @ 21:00
TAF URWW 181057Z 1812/1821 06006G12MPS 9999 SCT040
Wind Visibility Clouds
60° at 12 knots
 Gusting to 23 knots
10,000+ meters
  • Scattered at 4,000' AGL
Temporary Jun-18 @ 12:00 to Jun-18 @ 15:00
TEMPO 1812/1815 09005G10MPS
Wind
90° at 10 knots
 Gusting to 19 knots
Temporary Jun-18 @ 15:00 to Jun-18 @ 21:00
TEMPO 1815/1821 03003G08MPS
Wind
30° at 6 knots
 Gusting to 16 knots
TAF URWW 181057Z 1812/1821 06006G12MPS 9999 SCT040 TEMPO 1812/1815 09005G10MPS TEMPO 1815/1821 03003G08MPS
Issued Jun-18 @ 10:57 UTC
(2 hours ago)
Valid From Jun-18 @ 12:00 UTC
(an hour ago)
Valid To Jun-18 @ 21:00 UTC
(in 8 hours)
Jun-18 @ 12:00 - Jun-18 @ 21:00
Wind Visibility
60° at 12 knots
 Gusting to 23 knots
10,000+ meters
Clouds
  • Scattered at 4,000' AGL
Temporary Jun-18 @ 12:00 - Jun-18 @ 15:00
Wind
90° at 10 knots
 Gusting to 19 knots
Temporary Jun-18 @ 15:00 - Jun-18 @ 21:00
Wind
30° at 6 knots
 Gusting to 16 knots